Kensington, Minnesota
Current Conditions -  °F | °C
As of 4:20 AM on Thursday 29 Jan 2015 (Local Time) from KAXN Reporting Station
Overcast Overcast  
Wind Chill: 10°   Ceiling: 1000
Heat Index: 25°   Visibility: 10mi
Dew Point: 22°   Wind: 22mph
Humidity: 88%   Direction: 330°NNW
Pressure: 30.09"   Gusts: 29mph
Location:  45.78°N, 95.7°W
Report Text: KAXN 291020Z AUTO 33019G25KT 10SM OVC010 M04/M06 A3009 RMK AO2 PK WND 32030/0955 CIG 009V015 T10391056
Loading
Personal Weather Stations






























Interactive Weather Map New forecast layout! Learn more

10-Day Weather Forecast

Advertisements
Track Severe Weather on mobile